sensor_id;sensor_type;location;lat;lon;timestamp;temperature;humidity
14277;DHT22;7222;57.346;12.150;2023-11-19T00:00:06;-0.80;99.90
14277;DHT22;7222;57.346;12.150;2023-11-19T00:02:38;-0.90;99.90
14277;DHT22;7222;57.346;12.150;2023-11-19T00:05:05;-0.80;99.90
14277;DHT22;7222;57.346;12.150;2023-11-19T00:07:34;-0.90;99.90
14277;DHT22;7222;57.346;12.150;2023-11-19T00:10:01;-0.80;99.90
14277;DHT22;7222;57.346;12.150;2023-11-19T00:12:36;-0.80;99.90
14277;DHT22;7222;57.346;12.150;2023-11-19T00:15:04;-0.80;99.90
14277;DHT22;7222;57.346;12.150;2023-11-19T00:17:32;-0.80;99.90
14277;DHT22;7222;57.346;12.150;2023-11-19T00:20:00;-0.80;99.90
14277;DHT22;7222;57.346;12.150;2023-11-19T00:22:31;-0.80;99.90
14277;DHT22;7222;57.346;12.150;2023-11-19T00:24:58;-0.70;99.90
14277;DHT22;7222;57.346;12.150;2023-11-19T00:27:27;-0.70;99.90
14277;DHT22;7222;57.346;12.150;2023-11-19T00:29:54;-0.60;99.90
14277;DHT22;7222;57.346;12.150;2023-11-19T00:32:21;-0.60;99.90
14277;DHT22;7222;57.346;12.150;2023-11-19T00:34:48;-0.70;99.90
14277;DHT22;7222;57.346;12.150;2023-11-19T00:37:16;-0.60;99.90
14277;DHT22;7222;57.346;12.150;2023-11-19T00:39:43;-0.60;99.90
14277;DHT22;7222;57.346;12.150;2023-11-19T00:42:11;-0.50;99.90
14277;DHT22;7222;57.346;12.150;2023-11-19T00:44:38;-0.60;99.90
14277;DHT22;7222;57.346;12.150;2023-11-19T00:47:05;-0.60;99.90
14277;DHT22;7222;57.346;12.150;2023-11-19T00:49:32;-0.60;99.90
14277;DHT22;7222;57.346;12.150;2023-11-19T00:51:59;-0.50;99.90
14277;DHT22;7222;57.346;12.150;2023-11-19T00:54:29;-0.60;99.90
14277;DHT22;7222;57.346;12.150;2023-11-19T00:56:56;-0.50;99.90
14277;DHT22;7222;57.346;12.150;2023-11-19T00:59:22;-0.40;99.90
14277;DHT22;7222;57.346;12.150;2023-11-19T01:01:49;-0.40;99.90
14277;DHT22;7222;57.346;12.150;2023-11-19T01:04:17;-0.40;99.90
14277;DHT22;7222;57.346;12.150;2023-11-19T01:06:44;-0.40;99.90
14277;DHT22;7222;57.346;12.150;2023-11-19T01:09:11;-0.40;99.90
14277;DHT22;7222;57.346;12.150;2023-11-19T01:11:39;-0.30;99.90
14277;DHT22;7222;57.346;12.150;2023-11-19T01:14:06;-0.30;99.90
14277;DHT22;7222;57.346;12.150;2023-11-19T01:16:33;-0.40;99.90
14277;DHT22;7222;57.346;12.150;2023-11-19T01:18:59;-0.30;99.90
14277;DHT22;7222;57.346;12.150;2023-11-19T01:21:30;-0.30;99.90
14277;DHT22;7222;57.346;12.150;2023-11-19T01:23:57;-0.20;99.90
14277;DHT22;7222;57.346;12.150;2023-11-19T01:26:24;-0.30;99.90
14277;DHT22;7222;57.346;12.150;2023-11-19T01:28:51;-0.30;99.90
14277;DHT22;7222;57.346;12.150;2023-11-19T01:31:18;-0.30;99.90
14277;DHT22;7222;57.346;12.150;2023-11-19T01:33:45;-0.20;99.90
14277;DHT22;7222;57.346;12.150;2023-11-19T01:36:13;-0.30;99.90
14277;DHT22;7222;57.346;12.150;2023-11-19T01:38:40;-0.20;99.90
14277;DHT22;7222;57.346;12.150;2023-11-19T01:41:06;-0.20;99.90
14277;DHT22;7222;57.346;12.150;2023-11-19T01:43:35;-0.10;99.90
14277;DHT22;7222;57.346;12.150;2023-11-19T01:46:05;-0.20;99.90
14277;DHT22;7222;57.346;12.150;2023-11-19T01:48:33;-0.10;99.90
14277;DHT22;7222;57.346;12.150;2023-11-19T01:51:01;-0.10;99.90
14277;DHT22;7222;57.346;12.150;2023-11-19T01:53:28;-0.10;99.90
14277;DHT22;7222;57.346;12.150;2023-11-19T01:55:57;-0.10;99.90
14277;DHT22;7222;57.346;12.150;2023-11-19T01:58:24;-0.10;99.90
14277;DHT22;7222;57.346;12.150;2023-11-19T02:00:51;-0.10;99.90
14277;DHT22;7222;57.346;12.150;2023-11-19T02:03:20;-0.10;99.90
14277;DHT22;7222;57.346;12.150;2023-11-19T02:05:48;0.10;99.90
14277;DHT22;7222;57.346;12.150;2023-11-19T02:08:16;0.00;99.90
14277;DHT22;7222;57.346;12.150;2023-11-19T02:10:43;0.10;99.90
14277;DHT22;7222;57.346;12.150;2023-11-19T02:13:10;0.00;99.90
14277;DHT22;7222;57.346;12.150;2023-11-19T02:15:39;-0.10;99.90
14277;DHT22;7222;57.346;12.150;2023-11-19T02:18:20;0.00;99.90
14277;DHT22;7222;57.346;12.150;2023-11-19T02:20:48;0.00;99.90
14277;DHT22;7222;57.346;12.150;2023-11-19T02:23:16;0.00;99.90
14277;DHT22;7222;57.346;12.150;2023-11-19T02:25:43;0.10;99.90
14277;DHT22;7222;57.346;12.150;2023-11-19T02:28:14;0.10;99.90
14277;DHT22;7222;57.346;12.150;2023-11-19T02:30:42;0.00;99.90
14277;DHT22;7222;57.346;12.150;2023-11-19T02:33:08;0.00;99.90
14277;DHT22;7222;57.346;12.150;2023-11-19T02:35:35;0.20;99.90
14277;DHT22;7222;57.346;12.150;2023-11-19T02:38:02;0.10;99.90
14277;DHT22;7222;57.346;12.150;2023-11-19T02:40:32;0.10;99.90
14277;DHT22;7222;57.346;12.150;2023-11-19T02:42:59;0.10;99.90
14277;DHT22;7222;57.346;12.150;2023-11-19T02:45:27;0.20;99.90
14277;DHT22;7222;57.346;12.150;2023-11-19T02:47:56;0.10;99.90
14277;DHT22;7222;57.346;12.150;2023-11-19T02:50:23;0.20;99.90
14277;DHT22;7222;57.346;12.150;2023-11-19T02:52:53;0.20;99.90
14277;DHT22;7222;57.346;12.150;2023-11-19T02:55:22;0.20;99.90
14277;DHT22;7222;57.346;12.150;2023-11-19T02:57:49;0.30;99.90
14277;DHT22;7222;57.346;12.150;2023-11-19T03:00:17;0.30;99.90
14277;DHT22;7222;57.346;12.150;2023-11-19T03:02:50;0.30;99.90
14277;DHT22;7222;57.346;12.150;2023-11-19T03:05:25;0.30;99.90
14277;DHT22;7222;57.346;12.150;2023-11-19T03:07:52;0.30;99.90
14277;DHT22;7222;57.346;12.150;2023-11-19T03:10:18;0.30;99.90
14277;DHT22;7222;57.346;12.150;2023-11-19T03:12:45;0.50;99.90
14277;DHT22;7222;57.346;12.150;2023-11-19T03:15:12;0.50;99.90
14277;DHT22;7222;57.346;12.150;2023-11-19T03:17:40;0.50;99.90
14277;DHT22;7222;57.346;12.150;2023-11-19T03:20:10;0.40;99.90
14277;DHT22;7222;57.346;12.150;2023-11-19T03:22:41;0.50;99.90
14277;DHT22;7222;57.346;12.150;2023-11-19T03:25:08;0.50;99.90
14277;DHT22;7222;57.346;12.150;2023-11-19T03:27:35;0.50;99.90
14277;DHT22;7222;57.346;12.150;2023-11-19T03:30:03;0.60;99.90
14277;DHT22;7222;57.346;12.150;2023-11-19T03:32:30;0.60;99.90
14277;DHT22;7222;57.346;12.150;2023-11-19T03:34:57;0.60;99.90
14277;DHT22;7222;57.346;12.150;2023-11-19T03:37:26;0.60;99.90
14277;DHT22;7222;57.346;12.150;2023-11-19T03:39:53;0.70;99.90
14277;DHT22;7222;57.346;12.150;2023-11-19T03:42:20;0.70;99.90
14277;DHT22;7222;57.346;12.150;2023-11-19T03:44:48;0.70;99.90
14277;DHT22;7222;57.346;12.150;2023-11-19T03:47:16;0.70;99.90
14277;DHT22;7222;57.346;12.150;2023-11-19T03:49:42;0.60;99.90
14277;DHT22;7222;57.346;12.150;2023-11-19T03:52:14;0.70;99.90
14277;DHT22;7222;57.346;12.150;2023-11-19T03:54:42;0.80;99.90
14277;DHT22;7222;57.346;12.150;2023-11-19T03:57:09;0.80;99.90
14277;DHT22;7222;57.346;12.150;2023-11-19T03:59:37;0.80;99.90
14277;DHT22;7222;57.346;12.150;2023-11-19T04:02:04;0.80;99.90
14277;DHT22;7222;57.346;12.150;2023-11-19T04:04:31;0.80;99.90
14277;DHT22;7222;57.346;12.150;2023-11-19T04:06:59;0.80;99.90
14277;DHT22;7222;57.346;12.150;2023-11-19T04:09:26;0.90;99.90
14277;DHT22;7222;57.346;12.150;2023-11-19T04:11:54;0.70;99.90
14277;DHT22;7222;57.346;12.150;2023-11-19T04:14:21;0.80;99.90
14277;DHT22;7222;57.346;12.150;2023-11-19T04:16:49;0.80;99.90
14277;DHT22;7222;57.346;12.150;2023-11-19T04:19:16;0.90;99.90
14277;DHT22;7222;57.346;12.150;2023-11-19T04:21:43;0.90;99.90
14277;DHT22;7222;57.346;12.150;2023-11-19T04:24:11;0.90;99.90
14277;DHT22;7222;57.346;12.150;2023-11-19T04:26:40;0.90;99.90
14277;DHT22;7222;57.346;12.150;2023-11-19T04:29:11;1.00;99.90
14277;DHT22;7222;57.346;12.150;2023-11-19T04:31:38;1.00;99.90
14277;DHT22;7222;57.346;12.150;2023-11-19T04:34:05;0.90;99.90
14277;DHT22;7222;57.346;12.150;2023-11-19T04:36:32;1.00;99.90
14277;DHT22;7222;57.346;12.150;2023-11-19T04:38:59;0.90;99.90
14277;DHT22;7222;57.346;12.150;2023-11-19T04:41:26;1.00;99.90
14277;DHT22;7222;57.346;12.150;2023-11-19T04:43:54;1.00;99.90
14277;DHT22;7222;57.346;12.150;2023-11-19T04:46:22;1.10;99.90
14277;DHT22;7222;57.346;12.150;2023-11-19T04:48:49;1.00;99.90
14277;DHT22;7222;57.346;12.150;2023-11-19T04:51:16;1.10;99.90
14277;DHT22;7222;57.346;12.150;2023-11-19T04:53:43;1.00;99.90
14277;DHT22;7222;57.346;12.150;2023-11-19T04:56:12;1.00;99.90
14277;DHT22;7222;57.346;12.150;2023-11-19T04:58:39;1.10;99.90
14277;DHT22;7222;57.346;12.150;2023-11-19T05:01:06;1.10;99.90
14277;DHT22;7222;57.346;12.150;2023-11-19T05:03:34;1.10;99.90
14277;DHT22;7222;57.346;12.150;2023-11-19T05:06:02;1.10;99.90
14277;DHT22;7222;57.346;12.150;2023-11-19T05:08:29;1.10;99.90
14277;DHT22;7222;57.346;12.150;2023-11-19T05:10:56;1.20;99.90
14277;DHT22;7222;57.346;12.150;2023-11-19T05:13:23;1.20;99.90
14277;DHT22;7222;57.346;12.150;2023-11-19T05:15:50;1.20;99.90
14277;DHT22;7222;57.346;12.150;2023-11-19T05:18:17;1.20;99.90
14277;DHT22;7222;57.346;12.150;2023-11-19T05:20:46;1.10;99.90
14277;DHT22;7222;57.346;12.150;2023-11-19T05:23:13;1.20;99.90
14277;DHT22;7222;57.346;12.150;2023-11-19T05:25:39;1.20;99.90
14277;DHT22;7222;57.346;12.150;2023-11-19T05:28:06;1.20;99.90
14277;DHT22;7222;57.346;12.150;2023-11-19T05:30:33;1.20;99.90
14277;DHT22;7222;57.346;12.150;2023-11-19T05:33:00;1.20;99.90
14277;DHT22;7222;57.346;12.150;2023-11-19T05:35:27;1.20;99.90
14277;DHT22;7222;57.346;12.150;2023-11-19T05:37:55;1.20;99.90
14277;DHT22;7222;57.346;12.150;2023-11-19T05:40:22;1.30;99.90
14277;DHT22;7222;57.346;12.150;2023-11-19T05:42:49;1.10;99.90
14277;DHT22;7222;57.346;12.150;2023-11-19T05:45:16;1.20;99.90
14277;DHT22;7222;57.346;12.150;2023-11-19T05:47:43;1.20;99.90
14277;DHT22;7222;57.346;12.150;2023-11-19T05:50:10;1.20;99.90
14277;DHT22;7222;57.346;12.150;2023-11-19T05:52:37;1.30;99.90
14277;DHT22;7222;57.346;12.150;2023-11-19T05:55:06;1.20;99.90
14277;DHT22;7222;57.346;12.150;2023-11-19T05:57:35;1.30;99.90
14277;DHT22;7222;57.346;12.150;2023-11-19T06:00:03;1.30;99.90
14277;DHT22;7222;57.346;12.150;2023-11-19T06:02:32;1.40;99.90
14277;DHT22;7222;57.346;12.150;2023-11-19T06:04:59;1.30;99.90
14277;DHT22;7222;57.346;12.150;2023-11-19T06:07:27;1.40;99.90
14277;DHT22;7222;57.346;12.150;2023-11-19T06:09:54;1.40;99.90
14277;DHT22;7222;57.346;12.150;2023-11-19T06:12:22;1.40;99.90
14277;DHT22;7222;57.346;12.150;2023-11-19T06:14:49;1.40;99.90
14277;DHT22;7222;57.346;12.150;2023-11-19T06:17:16;1.40;99.90
14277;DHT22;7222;57.346;12.150;2023-11-19T06:19:43;1.50;99.90
14277;DHT22;7222;57.346;12.150;2023-11-19T06:22:10;1.50;99.90
14277;DHT22;7222;57.346;12.150;2023-11-19T06:24:37;1.50;99.90
14277;DHT22;7222;57.346;12.150;2023-11-19T06:27:04;1.50;99.90
14277;DHT22;7222;57.346;12.150;2023-11-19T06:29:32;1.40;99.90
14277;DHT22;7222;57.346;12.150;2023-11-19T06:31:59;1.50;99.90
14277;DHT22;7222;57.346;12.150;2023-11-19T06:34:26;1.50;99.90
14277;DHT22;7222;57.346;12.150;2023-11-19T06:36:53;1.50;99.90
14277;DHT22;7222;57.346;12.150;2023-11-19T06:39:20;1.60;99.90
14277;DHT22;7222;57.346;12.150;2023-11-19T06:41:47;1.70;99.90
14277;DHT22;7222;57.346;12.150;2023-11-19T06:44:14;1.60;99.90
14277;DHT22;7222;57.346;12.150;2023-11-19T06:46:42;1.50;99.90
14277;DHT22;7222;57.346;12.150;2023-11-19T06:49:09;1.70;99.90
14277;DHT22;7222;57.346;12.150;2023-11-19T06:51:41;1.60;99.90
14277;DHT22;7222;57.346;12.150;2023-11-19T06:54:08;1.70;99.90
14277;DHT22;7222;57.346;12.150;2023-11-19T06:56:35;1.70;99.90
14277;DHT22;7222;57.346;12.150;2023-11-19T06:59:02;1.70;99.90
14277;DHT22;7222;57.346;12.150;2023-11-19T07:01:34;1.70;99.90
14277;DHT22;7222;57.346;12.150;2023-11-19T07:04:03;1.70;99.90
14277;DHT22;7222;57.346;12.150;2023-11-19T07:06:34;1.80;99.90
14277;DHT22;7222;57.346;12.150;2023-11-19T07:09:01;1.80;99.90
14277;DHT22;7222;57.346;12.150;2023-11-19T07:11:35;1.80;99.90
14277;DHT22;7222;57.346;12.150;2023-11-19T07:14:03;1.80;99.90
14277;DHT22;7222;57.346;12.150;2023-11-19T07:16:30;1.80;99.90
14277;DHT22;7222;57.346;12.150;2023-11-19T07:18:57;1.80;99.90
14277;DHT22;7222;57.346;12.150;2023-11-19T07:21:27;1.80;99.90
14277;DHT22;7222;57.346;12.150;2023-11-19T07:23:54;1.80;99.90
14277;DHT22;7222;57.346;12.150;2023-11-19T07:26:22;1.80;99.90
14277;DHT22;7222;57.346;12.150;2023-11-19T07:28:48;1.90;99.90
14277;DHT22;7222;57.346;12.150;2023-11-19T07:31:16;1.90;99.90
14277;DHT22;7222;57.346;12.150;2023-11-19T07:33:45;1.90;99.90
14277;DHT22;7222;57.346;12.150;2023-11-19T07:36:13;2.00;99.90
14277;DHT22;7222;57.346;12.150;2023-11-19T07:38:41;2.00;99.90
14277;DHT22;7222;57.346;12.150;2023-11-19T07:41:08;2.00;99.90
14277;DHT22;7222;57.346;12.150;2023-11-19T07:43:38;2.00;99.90
14277;DHT22;7222;57.346;12.150;2023-11-19T07:46:08;2.00;99.90
14277;DHT22;7222;57.346;12.150;2023-11-19T07:48:37;2.10;99.90
14277;DHT22;7222;57.346;12.150;2023-11-19T07:51:04;2.20;99.90
14277;DHT22;7222;57.346;12.150;2023-11-19T07:53:31;2.10;99.90
14277;DHT22;7222;57.346;12.150;2023-11-19T07:56:01;2.20;99.90
14277;DHT22;7222;57.346;12.150;2023-11-19T07:58:27;2.20;99.90
14277;DHT22;7222;57.346;12.150;2023-11-19T08:00:54;2.20;99.90
14277;DHT22;7222;57.346;12.150;2023-11-19T08:03:21;2.10;99.90
14277;DHT22;7222;57.346;12.150;2023-11-19T08:05:49;2.20;99.90
14277;DHT22;7222;57.346;12.150;2023-11-19T08:08:16;2.30;99.90
14277;DHT22;7222;57.346;12.150;2023-11-19T08:10:43;2.30;99.90
14277;DHT22;7222;57.346;12.150;2023-11-19T08:13:11;2.20;99.90
14277;DHT22;7222;57.346;12.150;2023-11-19T08:15:38;2.30;99.90
14277;DHT22;7222;57.346;12.150;2023-11-19T08:18:05;2.30;99.90
14277;DHT22;7222;57.346;12.150;2023-11-19T08:20:33;2.30;99.90
14277;DHT22;7222;57.346;12.150;2023-11-19T08:23:00;2.30;99.90
14277;DHT22;7222;57.346;12.150;2023-11-19T08:25:26;2.30;99.90
14277;DHT22;7222;57.346;12.150;2023-11-19T08:27:53;2.40;99.90
14277;DHT22;7222;57.346;12.150;2023-11-19T08:30:22;2.40;99.90
14277;DHT22;7222;57.346;12.150;2023-11-19T08:32:48;2.40;99.90
14277;DHT22;7222;57.346;12.150;2023-11-19T08:35:15;2.50;99.90
14277;DHT22;7222;57.346;12.150;2023-11-19T08:37:42;2.50;99.90
14277;DHT22;7222;57.346;12.150;2023-11-19T08:40:11;2.60;99.90
14277;DHT22;7222;57.346;12.150;2023-11-19T08:42:40;2.60;99.90
14277;DHT22;7222;57.346;12.150;2023-11-19T08:45:07;2.50;99.90
14277;DHT22;7222;57.346;12.150;2023-11-19T08:47:37;2.60;99.90
14277;DHT22;7222;57.346;12.150;2023-11-19T08:50:04;2.60;99.90
14277;DHT22;7222;57.346;12.150;2023-11-19T08:52:31;2.60;99.90
14277;DHT22;7222;57.346;12.150;2023-11-19T08:54:58;2.70;99.90
14277;DHT22;7222;57.346;12.150;2023-11-19T08:57:25;2.70;99.90
14277;DHT22;7222;57.346;12.150;2023-11-19T08:59:52;2.70;99.90
14277;DHT22;7222;57.346;12.150;2023-11-19T09:02:18;2.70;99.90
14277;DHT22;7222;57.346;12.150;2023-11-19T09:04:47;2.80;99.90
14277;DHT22;7222;57.346;12.150;2023-11-19T09:07:14;2.80;99.90
14277;DHT22;7222;57.346;12.150;2023-11-19T09:09:41;2.90;99.90
14277;DHT22;7222;57.346;12.150;2023-11-19T09:12:07;2.90;99.90
14277;DHT22;7222;57.346;12.150;2023-11-19T09:14:34;2.90;99.90
14277;DHT22;7222;57.346;12.150;2023-11-19T09:17:01;2.90;99.90
14277;DHT22;7222;57.346;12.150;2023-11-19T09:19:28;2.90;99.90
14277;DHT22;7222;57.346;12.150;2023-11-19T09:21:57;2.90;99.90
14277;DHT22;7222;57.346;12.150;2023-11-19T09:24:23;3.00;99.90
14277;DHT22;7222;57.346;12.150;2023-11-19T09:26:50;3.00;99.90
14277;DHT22;7222;57.346;12.150;2023-11-19T09:29:17;3.10;99.90
14277;DHT22;7222;57.346;12.150;2023-11-19T09:31:45;3.10;99.90
14277;DHT22;7222;57.346;12.150;2023-11-19T09:34:12;3.10;99.90
14277;DHT22;7222;57.346;12.150;2023-11-19T09:36:38;3.20;99.90
14277;DHT22;7222;57.346;12.150;2023-11-19T09:39:10;3.20;99.90
14277;DHT22;7222;57.346;12.150;2023-11-19T09:41:38;3.30;99.90
14277;DHT22;7222;57.346;12.150;2023-11-19T09:44:05;3.30;99.90
14277;DHT22;7222;57.346;12.150;2023-11-19T09:46:32;3.40;99.90
14277;DHT22;7222;57.346;12.150;2023-11-19T09:48:59;3.40;99.90
14277;DHT22;7222;57.346;12.150;2023-11-19T09:51:27;3.50;99.90
14277;DHT22;7222;57.346;12.150;2023-11-19T09:53:54;3.40;99.90
14277;DHT22;7222;57.346;12.150;2023-11-19T09:56:23;3.50;99.90
14277;DHT22;7222;57.346;12.150;2023-11-19T09:58:50;3.50;99.90
14277;DHT22;7222;57.346;12.150;2023-11-19T10:01:18;3.50;99.90
14277;DHT22;7222;57.346;12.150;2023-11-19T10:03:47;3.50;99.90
14277;DHT22;7222;57.346;12.150;2023-11-19T10:06:14;3.60;99.90
14277;DHT22;7222;57.346;12.150;2023-11-19T10:08:42;3.60;99.90
14277;DHT22;7222;57.346;12.150;2023-11-19T10:11:09;3.60;99.90
14277;DHT22;7222;57.346;12.150;2023-11-19T10:13:39;3.60;99.90
14277;DHT22;7222;57.346;12.150;2023-11-19T10:16:08;3.60;99.90
14277;DHT22;7222;57.346;12.150;2023-11-19T10:18:37;3.70;99.90
14277;DHT22;7222;57.346;12.150;2023-11-19T10:21:04;3.70;99.90
14277;DHT22;7222;57.346;12.150;2023-11-19T10:23:48;3.70;99.90
14277;DHT22;7222;57.346;12.150;2023-11-19T10:26:15;3.70;99.90
14277;DHT22;7222;57.346;12.150;2023-11-19T10:28:46;3.70;99.90
14277;DHT22;7222;57.346;12.150;2023-11-19T10:31:13;3.70;99.90
14277;DHT22;7222;57.346;12.150;2023-11-19T10:33:40;3.80;99.90
14277;DHT22;7222;57.346;12.150;2023-11-19T10:36:08;3.80;99.90
14277;DHT22;7222;57.346;12.150;2023-11-19T10:38:35;3.80;99.90
14277;DHT22;7222;57.346;12.150;2023-11-19T10:41:02;3.80;99.90
14277;DHT22;7222;57.346;12.150;2023-11-19T10:43:30;3.80;99.90
14277;DHT22;7222;57.346;12.150;2023-11-19T10:46:09;3.80;99.90
14277;DHT22;7222;57.346;12.150;2023-11-19T10:48:36;3.80;99.90
14277;DHT22;7222;57.346;12.150;2023-11-19T10:51:05;3.80;99.90
14277;DHT22;7222;57.346;12.150;2023-11-19T10:53:35;3.80;99.90
14277;DHT22;7222;57.346;12.150;2023-11-19T10:56:05;3.80;99.90
14277;DHT22;7222;57.346;12.150;2023-11-19T10:58:35;3.80;99.90
14277;DHT22;7222;57.346;12.150;2023-11-19T11:01:11;3.90;99.90
14277;DHT22;7222;57.346;12.150;2023-11-19T11:03:41;3.90;99.90
14277;DHT22;7222;57.346;12.150;2023-11-19T11:06:09;4.00;99.90
14277;DHT22;7222;57.346;12.150;2023-11-19T11:08:37;4.10;99.90
14277;DHT22;7222;57.346;12.150;2023-11-19T11:11:05;4.10;99.90
14277;DHT22;7222;57.346;12.150;2023-11-19T11:13:34;4.20;99.90
14277;DHT22;7222;57.346;12.150;2023-11-19T11:16:01;4.30;99.90
14277;DHT22;7222;57.346;12.150;2023-11-19T11:18:33;4.30;99.90
14277;DHT22;7222;57.346;12.150;2023-11-19T11:21:03;4.40;99.90
14277;DHT22;7222;57.346;12.150;2023-11-19T11:23:43;4.40;99.90
14277;DHT22;7222;57.346;12.150;2023-11-19T11:26:35;4.50;99.90
14277;DHT22;7222;57.346;12.150;2023-11-19T11:29:13;4.50;99.90
14277;DHT22;7222;57.346;12.150;2023-11-19T11:31:51;4.50;99.90
14277;DHT22;7222;57.346;12.150;2023-11-19T11:34:42;4.50;99.90
14277;DHT22;7222;57.346;12.150;2023-11-19T11:37:18;4.60;99.90
14277;DHT22;7222;57.346;12.150;2023-11-19T11:39:46;4.60;99.90
14277;DHT22;7222;57.346;12.150;2023-11-19T11:42:33;4.70;99.90
14277;DHT22;7222;57.346;12.150;2023-11-19T11:45:01;4.80;99.90
14277;DHT22;7222;57.346;12.150;2023-11-19T11:50:50;4.90;99.90
14277;DHT22;7222;57.346;12.150;2023-11-19T11:53:18;4.90;99.90
14277;DHT22;7222;57.346;12.150;2023-11-19T11:56:03;4.90;99.90
14277;DHT22;7222;57.346;12.150;2023-11-19T11:58:36;5.00;99.90
14277;DHT22;7222;57.346;12.150;2023-11-19T12:01:05;5.00;99.90
14277;DHT22;7222;57.346;12.150;2023-11-19T12:03:35;5.00;99.90
14277;DHT22;7222;57.346;12.150;2023-11-19T12:06:05;5.10;99.90
14277;DHT22;7222;57.346;12.150;2023-11-19T12:08:34;5.10;99.90
14277;DHT22;7222;57.346;12.150;2023-11-19T12:11:01;5.20;99.90
14277;DHT22;7222;57.346;12.150;2023-11-19T12:13:54;5.20;99.90
14277;DHT22;7222;57.346;12.150;2023-11-19T12:16:24;5.20;99.90
14277;DHT22;7222;57.346;12.150;2023-11-19T12:18:53;5.30;99.90
14277;DHT22;7222;57.346;12.150;2023-11-19T12:21:31;5.30;99.90
14277;DHT22;7222;57.346;12.150;2023-11-19T12:23:59;5.30;99.90
14277;DHT22;7222;57.346;12.150;2023-11-19T12:26:37;5.30;99.90
14277;DHT22;7222;57.346;12.150;2023-11-19T12:29:05;5.40;99.90
14277;DHT22;7222;57.346;12.150;2023-11-19T12:31:32;5.50;99.90
14277;DHT22;7222;57.346;12.150;2023-11-19T12:34:06;5.50;99.90
14277;DHT22;7222;57.346;12.150;2023-11-19T12:36:35;5.60;99.90
14277;DHT22;7222;57.346;12.150;2023-11-19T12:39:02;5.60;99.90
14277;DHT22;7222;57.346;12.150;2023-11-19T12:41:29;5.90;99.90
14277;DHT22;7222;57.346;12.150;2023-11-19T12:44:09;5.90;99.90
14277;DHT22;7222;57.346;12.150;2023-11-19T12:46:36;5.90;99.90
14277;DHT22;7222;57.346;12.150;2023-11-19T12:49:03;6.00;99.90
14277;DHT22;7222;57.346;12.150;2023-11-19T12:51:31;6.10;99.90
14277;DHT22;7222;57.346;12.150;2023-11-19T12:54:00;6.30;99.90
14277;DHT22;7222;57.346;12.150;2023-11-19T12:56:27;6.40;99.90
14277;DHT22;7222;57.346;12.150;2023-11-19T12:58:55;6.50;99.90
14277;DHT22;7222;57.346;12.150;2023-11-19T13:01:22;6.50;99.90
14277;DHT22;7222;57.346;12.150;2023-11-19T13:03:49;6.40;99.90
14277;DHT22;7222;57.346;12.150;2023-11-19T13:06:17;6.50;99.90
14277;DHT22;7222;57.346;12.150;2023-11-19T13:08:47;6.60;99.90
14277;DHT22;7222;57.346;12.150;2023-11-19T13:11:30;6.50;99.90
14277;DHT22;7222;57.346;12.150;2023-11-19T13:13:58;6.30;99.90
14277;DHT22;7222;57.346;12.150;2023-11-19T13:16:27;6.30;99.90
14277;DHT22;7222;57.346;12.150;2023-11-19T13:18:54;6.20;99.90
14277;DHT22;7222;57.346;12.150;2023-11-19T13:21:22;6.20;99.90
14277;DHT22;7222;57.346;12.150;2023-11-19T13:23:49;6.10;99.90
14277;DHT22;7222;57.346;12.150;2023-11-19T13:26:18;6.10;99.90
14277;DHT22;7222;57.346;12.150;2023-11-19T13:28:45;6.10;99.90
14277;DHT22;7222;57.346;12.150;2023-11-19T13:31:11;6.00;99.90
14277;DHT22;7222;57.346;12.150;2023-11-19T13:33:38;6.00;99.90
14277;DHT22;7222;57.346;12.150;2023-11-19T13:36:05;6.00;99.90
14277;DHT22;7222;57.346;12.150;2023-11-19T13:38:33;5.90;99.90
14277;DHT22;7222;57.346;12.150;2023-11-19T13:41:00;6.00;99.90
14277;DHT22;7222;57.346;12.150;2023-11-19T13:43:29;5.90;99.90
14277;DHT22;7222;57.346;12.150;2023-11-19T13:45:56;6.00;99.90
14277;DHT22;7222;57.346;12.150;2023-11-19T13:48:24;6.20;99.90
14277;DHT22;7222;57.346;12.150;2023-11-19T13:50:52;6.40;99.90
14277;DHT22;7222;57.346;12.150;2023-11-19T13:53:19;6.70;99.90
14277;DHT22;7222;57.346;12.150;2023-11-19T13:55:46;6.70;99.90
14277;DHT22;7222;57.346;12.150;2023-11-19T13:58:13;6.40;99.90
14277;DHT22;7222;57.346;12.150;2023-11-19T14:00:41;6.20;99.90
14277;DHT22;7222;57.346;12.150;2023-11-19T14:03:09;6.00;99.90
14277;DHT22;7222;57.346;12.150;2023-11-19T14:05:36;6.00;99.90
14277;DHT22;7222;57.346;12.150;2023-11-19T14:08:03;5.80;99.90
14277;DHT22;7222;57.346;12.150;2023-11-19T14:10:37;5.80;99.90
14277;DHT22;7222;57.346;12.150;2023-11-19T14:13:05;5.70;99.90
14277;DHT22;7222;57.346;12.150;2023-11-19T14:15:32;5.70;99.90
14277;DHT22;7222;57.346;12.150;2023-11-19T14:18:00;5.70;99.90
14277;DHT22;7222;57.346;12.150;2023-11-19T14:20:28;5.70;99.90
14277;DHT22;7222;57.346;12.150;2023-11-19T14:22:55;5.60;99.90
14277;DHT22;7222;57.346;12.150;2023-11-19T14:25:22;5.50;99.90
14277;DHT22;7222;57.346;12.150;2023-11-19T14:27:49;5.50;99.90
14277;DHT22;7222;57.346;12.150;2023-11-19T14:30:16;5.50;99.90
14277;DHT22;7222;57.346;12.150;2023-11-19T14:32:43;5.40;99.90
14277;DHT22;7222;57.346;12.150;2023-11-19T14:35:13;5.30;99.90
14277;DHT22;7222;57.346;12.150;2023-11-19T14:37:39;5.30;99.90
14277;DHT22;7222;57.346;12.150;2023-11-19T14:40:07;5.20;99.90
14277;DHT22;7222;57.346;12.150;2023-11-19T14:42:36;5.20;99.90
14277;DHT22;7222;57.346;12.150;2023-11-19T14:45:05;5.10;99.90
14277;DHT22;7222;57.346;12.150;2023-11-19T14:47:32;5.00;99.90
14277;DHT22;7222;57.346;12.150;2023-11-19T14:49:59;4.90;99.90
14277;DHT22;7222;57.346;12.150;2023-11-19T14:52:27;4.90;99.90
14277;DHT22;7222;57.346;12.150;2023-11-19T14:54:54;4.80;99.90
14277;DHT22;7222;57.346;12.150;2023-11-19T14:57:22;4.70;99.90
14277;DHT22;7222;57.346;12.150;2023-11-19T14:59:49;4.70;99.90
14277;DHT22;7222;57.346;12.150;2023-11-19T15:02:16;4.70;99.90
14277;DHT22;7222;57.346;12.150;2023-11-19T15:04:44;4.60;99.90
14277;DHT22;7222;57.346;12.150;2023-11-19T15:07:11;4.60;99.90
14277;DHT22;7222;57.346;12.150;2023-11-19T15:09:39;4.60;99.90
14277;DHT22;7222;57.346;12.150;2023-11-19T15:12:06;4.50;99.90
14277;DHT22;7222;57.346;12.150;2023-11-19T15:14:34;4.50;99.90
14277;DHT22;7222;57.346;12.150;2023-11-19T15:17:01;4.50;99.90
14277;DHT22;7222;57.346;12.150;2023-11-19T15:19:28;4.40;99.90
14277;DHT22;7222;57.346;12.150;2023-11-19T15:21:55;4.40;99.90
14277;DHT22;7222;57.346;12.150;2023-11-19T15:24:22;4.40;99.90
14277;DHT22;7222;57.346;12.150;2023-11-19T15:26:52;4.30;99.90
14277;DHT22;7222;57.346;12.150;2023-11-19T15:29:19;4.30;99.90
14277;DHT22;7222;57.346;12.150;2023-11-19T15:31:45;4.30;99.90
14277;DHT22;7222;57.346;12.150;2023-11-19T15:34:12;4.30;99.90
14277;DHT22;7222;57.346;12.150;2023-11-19T15:36:39;4.30;99.90
14277;DHT22;7222;57.346;12.150;2023-11-19T15:39:06;4.30;99.90
14277;DHT22;7222;57.346;12.150;2023-11-19T15:41:33;4.20;99.90
14277;DHT22;7222;57.346;12.150;2023-11-19T15:44:02;4.20;99.90
14277;DHT22;7222;57.346;12.150;2023-11-19T15:46:30;4.20;99.90
14277;DHT22;7222;57.346;12.150;2023-11-19T15:48:57;4.20;99.90
14277;DHT22;7222;57.346;12.150;2023-11-19T15:51:24;4.10;99.90
14277;DHT22;7222;57.346;12.150;2023-11-19T15:53:51;4.20;99.90